Time;durP1;ratioP1;P1;durP2;ratioP2;P2;SDS_P1;SDS_P2;PMS_P1;PMS_P2;Temp;Humidity;BMP_temperature;BMP_pressure;BME280_temperature;BME280_humidity;BME280_pressure;Samples;Min_cycle;Max_cycle;Signal;HPM_P1;HPM_P2
2023/08/25 00:02:43;;;;;;;;;;;;;;;17.75;71.72;100225.06;4931790;29;1583;-87
2023/08/25 00:05:35;;;;;;;;;;;;;;;17.74;71.47;100215.28;4936035;29;2104;-86
2023/08/25 00:08:27;;;;;;;;;;;;;;;17.74;71.43;100209.81;4934358;29;1649;-87
2023/08/25 00:11:19;;;;;;;;;;;;;;;17.72;71.44;100199.19;4933212;29;1668;-86
2023/08/25 00:14:11;;;;;;;;;;;;;;;17.70;71.44;100198.63;4935896;29;1572;-89
2023/08/25 00:17:03;;;;;;;;;;;;;;;17.70;71.30;100202.16;4933137;29;1580;-87
2023/08/25 00:19:55;;;;;;;;;;;;;;;17.70;71.52;100201.38;4934939;29;1911;-86
2023/08/25 00:22:47;;;;;;;;;;;;;;;17.69;71.56;100200.56;4933964;29;1717;-87
2023/08/25 00:25:39;;;;;;;;;;;;;;;17.69;71.29;100197.00;4934215;29;1838;-88
2023/08/25 00:28:30;;;;;;;;;;;;;;;17.69;71.45;100194.28;4934160;29;2123;-86
2023/08/25 00:31:22;;;;;;;;;;;;;;;17.67;71.41;100185.56;4930953;29;1741;-87
2023/08/25 00:34:14;;;;;;;;;;;;;;;17.66;71.41;100179.31;4934924;29;1611;-88
2023/08/25 00:37:06;;;;;;;;;;;;;;;17.66;71.32;100189.41;4933238;29;2132;-86
2023/08/25 00:39:58;;;;;;;;;;;;;;;17.65;71.57;100185.06;4935078;29;1911;-86
2023/08/25 00:42:50;;;;;;;;;;;;;;;17.64;71.51;100180.69;4934795;29;1697;-88
2023/08/25 00:45:43;;;;;;;;;;;;;;;17.64;71.32;100192.38;4939188;29;2044;-89
2023/08/25 00:48:34;;;;;;;;;;;;;;;17.64;71.25;100183.41;4934406;29;1518;-86
2023/08/25 00:51:26;;;;;;;;;;;;;;;17.63;71.42;100179.06;4932064;29;1518;-88
2023/08/25 00:54:18;;;;;;;;;;;;;;;17.62;71.52;100185.59;4934813;29;1538;-87
2023/08/25 00:57:10;;;;;;;;;;;;;;;17.62;71.25;100183.69;4931678;29;1720;-86
2023/08/25 01:00:04;;;;;;;;;;;;;;;17.62;71.43;100180.97;4934309;29;1907;-87
2023/08/25 01:02:55;;;;;;;;;;;;;;;17.61;71.43;100182.03;4934388;29;1936;-89
2023/08/25 01:05:48;;;;;;;;;;;;;;;17.60;71.44;100179.63;4932130;29;1521;-86
2023/08/25 01:08:39;;;;;;;;;;;;;;;17.60;71.37;100185.06;4934350;29;1859;-87
2023/08/25 01:11:31;;;;;;;;;;;;;;;17.61;71.38;100181.22;4927957;29;1538;-88
2023/08/25 01:14:23;;;;;;;;;;;;;;;17.59;71.15;100188.84;4938410;29;2057;-87
2023/08/25 01:17:15;;;;;;;;;;;;;;;17.58;71.36;100196.22;4932545;29;1580;-86
2023/08/25 01:20:07;;;;;;;;;;;;;;;17.58;71.38;100188.03;4932173;29;1910;-87
2023/08/25 01:23:00;;;;;;;;;;;;;;;17.58;71.31;100188.03;4933017;29;2210;-87
2023/08/25 01:25:52;;;;;;;;;;;;;;;17.56;71.41;100184.78;4932250;29;1640;-86
2023/08/25 01:28:43;;;;;;;;;;;;;;;17.56;71.41;100179.34;4933354;29;1711;-86
2023/08/25 01:31:35;;;;;;;;;;;;;;;17.54;71.15;100178.00;4932012;29;1609;-87
2023/08/25 01:34:26;;;;;;;;;;;;;;;17.53;71.33;100179.91;4932842;29;1541;-86
2023/08/25 01:37:19;;;;;;;;;;;;;;;17.54;71.26;100183.44;4932585;29;1573;-88
2023/08/25 01:40:11;;;;;;;;;;;;;;;17.54;71.15;100180.72;4932742;29;1911;-88
2023/08/25 01:43:02;;;;;;;;;;;;;;;17.53;71.23;100165.44;4933344;29;2061;-88
2023/08/25 01:45:54;;;;;;;;;;;;;;;17.51;71.07;100168.47;4933941;29;1808;-88
2023/08/25 01:48:47;;;;;;;;;;;;;;;17.54;70.87;100165.19;4932117;29;1562;-88
2023/08/25 01:51:38;;;;;;;;;;;;;;;17.53;71.08;100160.00;4933116;29;1693;-87
2023/08/25 01:54:30;;;;;;;;;;;;;;;17.53;71.06;100160.84;4931878;29;1788;-87
2023/08/25 01:57:23;;;;;;;;;;;;;;;17.54;71.00;100159.75;4931542;29;1633;-87
2023/08/25 02:00:14;;;;;;;;;;;;;;;17.52;70.91;100164.63;4931378;29;1931;-86
2023/08/25 02:03:06;;;;;;;;;;;;;;;17.55;70.72;100163.28;4933560;29;1808;-87
2023/08/25 02:05:58;;;;;;;;;;;;;;;17.57;70.51;100159.19;4930078;29;1541;-86
2023/08/25 02:08:50;;;;;;;;;;;;;;;17.53;70.83;100166.28;4932318;29;1665;-86
2023/08/25 02:11:42;;;;;;;;;;;;;;;17.53;71.03;100163.56;4933014;29;2068;-86
2023/08/25 02:14:34;;;;;;;;;;;;;;;17.52;70.78;100166.56;4935933;29;1819;-87
2023/08/25 02:17:27;;;;;;;;;;;;;;;17.54;70.79;100161.66;4933416;29;1561;-85
2023/08/25 02:20:18;;;;;;;;;;;;;;;17.54;70.75;100164.38;4935232;29;1994;-87
2023/08/25 02:23:11;;;;;;;;;;;;;;;17.53;70.73;100174.47;4936713;29;1681;-86
2023/08/25 02:26:03;;;;;;;;;;;;;;;17.53;70.63;100168.16;4935625;29;1807;-85
2023/08/25 02:28:54;;;;;;;;;;;;;;;17.59;70.36;100161.63;4936228;29;1643;-86
2023/08/25 02:31:45;;;;;;;;;;;;;;;17.61;70.12;100159.44;4934316;29;1825;-86
2023/08/25 02:34:38;;;;;;;;;;;;;;;17.60;70.21;100157.84;4936987;29;1988;-88
2023/08/25 02:37:30;;;;;;;;;;;;;;;17.63;70.11;100157.28;4933891;29;1728;-86
2023/08/25 02:40:22;;;;;;;;;;;;;;;17.57;70.37;100153.75;4934512;29;1968;-86
2023/08/25 02:43:14;;;;;;;;;;;;;;;17.63;69.95;100162.72;4932566;29;2057;-87
2023/08/25 02:46:06;;;;;;;;;;;;;;;17.67;69.92;100159.16;4935322;29;1707;-87
2023/08/25 02:48:58;;;;;;;;;;;;;;;17.79;69.38;100156.16;4936126;29;1596;-85
2023/08/25 02:51:50;;;;;;;;;;;;;;;17.82;69.16;100143.91;4936931;29;2119;-86
2023/08/25 02:54:41;;;;;;;;;;;;;;;17.77;69.47;100160.25;4933675;29;1572;-87
2023/08/25 02:57:34;;;;;;;;;;;;;;;17.80;69.06;100146.09;4935703;29;1585;-88
2023/08/25 03:00:26;;;;;;;;;;;;;;;17.75;69.28;100136.00;4934066;29;2087;-88
2023/08/25 03:03:17;;;;;;;;;;;;;;;17.81;69.02;100134.91;4936076;29;1693;-86
2023/08/25 03:06:10;;;;;;;;;;;;;;;17.73;69.29;100130.00;4934442;29;1636;-87
2023/08/25 03:09:04;;;;;;;;;;;;;;;17.84;68.89;100125.38;4932926;29;2088;-87
2023/08/25 03:11:56;;;;;;;;;;;;;;;17.87;68.65;100113.91;4934291;29;1672;-86
2023/08/25 03:14:47;;;;;;;;;;;;;;;17.71;69.40;100118.59;4934463;29;1592;-86
2023/08/25 03:17:41;;;;;;;;;;;;;;;17.77;69.04;100111.22;4933853;29;1589;-86
2023/08/25 03:20:32;;;;;;;;;;;;;;;17.84;68.64;100119.94;4939900;29;2130;-86
2023/08/25 03:23:25;;;;;;;;;;;;;;;17.80;68.75;100108.78;4937428;29;1625;-88
2023/08/25 03:26:16;;;;;;;;;;;;;;;17.75;68.82;100095.16;4932023;29;1449;-87
2023/08/25 03:29:08;;;;;;;;;;;;;;;17.89;68.60;100098.13;4937074;29;2154;-87
2023/08/25 03:32:00;;;;;;;;;;;;;;;17.92;68.22;100092.13;4936969;29;1496;-87
2023/08/25 03:34:53;;;;;;;;;;;;;;;17.95;68.11;100094.28;4937266;29;1567;-88
2023/08/25 03:37:44;;;;;;;;;;;;;;;17.99;68.01;100084.44;4936567;29;1421;-88
2023/08/25 03:40:36;;;;;;;;;;;;;;;18.01;67.80;100082.25;4936810;29;2081;-87
2023/08/25 03:43:28;;;;;;;;;;;;;;;17.99;67.76;100079.00;4936808;29;1631;-86
2023/08/25 03:46:21;;;;;;;;;;;;;;;17.94;68.28;100079.00;4938827;29;1539;-87
2023/08/25 03:49:12;;;;;;;;;;;;;;;17.93;67.98;100086.38;4937358;29;2115;-86
2023/08/25 03:52:05;;;;;;;;;;;;;;;18.00;67.84;100094.25;4938986;29;1810;-86
2023/08/25 03:54:56;;;;;;;;;;;;;;;17.88;68.13;100088.31;4935228;29;1370;-88
2023/08/25 03:57:49;;;;;;;;;;;;;;;17.96;67.84;100095.09;4937273;29;1576;-87
2023/08/25 04:00:40;;;;;;;;;;;;;;;18.02;67.49;100081.16;4937157;29;2069;-88
2023/08/25 04:03:33;;;;;;;;;;;;;;;17.91;68.06;100076.84;4937364;29;1050;-86
2023/08/25 04:06:24;;;;;;;;;;;;;;;17.97;67.59;100077.63;4937404;29;1524;-87
2023/08/25 04:09:17;;;;;;;;;;;;;;;18.06;67.22;100068.63;4935194;29;2113;-87
2023/08/25 04:12:08;;;;;;;;;;;;;;;17.94;67.71;100076.28;4940807;29;2022;-88
2023/08/25 04:14:59;;;;;;;;;;;;;;;18.00;67.50;100077.06;4937009;29;1595;-88
2023/08/25 04:17:51;;;;;;;;;;;;;;;17.96;67.86;100079.56;4937815;29;966;-88
2023/08/25 04:20:44;;;;;;;;;;;;;;;17.97;67.55;100089.38;4938193;29;2399;-90
2023/08/25 04:23:35;;;;;;;;;;;;;;;17.97;67.36;100085.81;4938422;29;1690;-91
2023/08/25 04:26:27;;;;;;;;;;;;;;;18.02;67.11;100089.31;4933319;29;1617;-92
2023/08/25 04:29:19;;;;;;;;;;;;;;;18.00;67.18;100087.97;4935434;29;1730;-91
2023/08/25 04:32:12;;;;;;;;;;;;;;;17.93;67.45;100085.56;4933057;29;1561;-91
2023/08/25 04:35:04;;;;;;;;;;;;;;;18.01;67.11;100093.16;4936718;29;1596;-91
2023/08/25 04:37:55;;;;;;;;;;;;;;;17.91;67.34;100095.91;4932114;29;1549;-92
2023/08/25 04:40:46;;;;;;;;;;;;;;;17.97;67.15;100105.72;4935045;29;2266;-91
2023/08/25 04:43:39;;;;;;;;;;;;;;;17.89;67.59;100093.50;4932339;29;1826;-91
2023/08/25 04:46:30;;;;;;;;;;;;;;;17.98;67.33;100098.34;4934786;29;1638;-93
2023/08/25 04:49:22;;;;;;;;;;;;;;;17.92;67.33;100103.00;4934741;29;1659;-93
2023/08/25 04:52:15;;;;;;;;;;;;;;;17.98;66.99;100093.72;4933142;29;1688;-92
2023/08/25 04:55:07;;;;;;;;;;;;;;;17.98;66.99;100087.47;4932986;29;1685;-91
2023/08/25 04:57:58;;;;;;;;;;;;;;;18.01;66.85;100092.34;4933076;29;1828;-91
2023/08/25 05:00:51;;;;;;;;;;;;;;;18.02;66.97;100102.16;4932012;29;1964;-92
2023/08/25 05:03:44;;;;;;;;;;;;;;;17.89;67.18;100095.41;4933984;29;2576;-91
2023/08/25 05:06:36;;;;;;;;;;;;;;;17.90;67.18;100091.56;4934709;29;1534;-89
2023/08/25 05:09:28;;;;;;;;;;;;;;;17.92;67.22;100089.38;4932064;29;1697;-92
2023/08/25 05:12:21;;;;;;;;;;;;;;;17.92;67.12;100070.31;4933776;29;1662;-92
2023/08/25 05:15:12;;;;;;;;;;;;;;;17.90;66.94;100056.97;4932333;29;2065;-91
2023/08/25 05:18:04;;;;;;;;;;;;;;;17.90;67.11;100048.00;4932154;29;1736;-92
2023/08/25 05:20:57;;;;;;;;;;;;;;;17.96;67.09;100033.25;4933941;29;2579;-91
2023/08/25 05:23:49;;;;;;;;;;;;;;;17.98;66.72;100019.34;4936757;29;2044;-90
2023/08/25 05:26:40;;;;;;;;;;;;;;;17.93;66.89;100003.84;4937235;29;1416;-91
2023/08/25 05:29:32;;;;;;;;;;;;;;;17.83;67.17;100002.00;4934856;29;1938;-90
2023/08/25 05:32:24;;;;;;;;;;;;;;;17.83;67.19;99993.00;4936726;29;1548;-91
2023/08/25 05:35:17;;;;;;;;;;;;;;;17.96;66.93;99997.81;4934184;29;2041;-91
2023/08/25 05:38:08;;;;;;;;;;;;;;;17.85;66.99;99988.91;4934733;29;1604;-92
2023/08/25 05:41:01;;;;;;;;;;;;;;;17.81;67.17;99990.56;4932791;29;2015;-92
2023/08/25 05:43:52;;;;;;;;;;;;;;;17.91;66.86;100003.28;4934196;29;2083;-91
2023/08/25 05:46:45;;;;;;;;;;;;;;;17.84;67.15;100013.69;4934442;29;1669;-91
2023/08/25 05:49:36;;;;;;;;;;;;;;;17.77;67.19;100008.53;4935766;29;1544;-90
2023/08/25 05:52:29;;;;;;;;;;;;;;;17.85;67.02;99997.09;4937160;29;1577;-91
2023/08/25 05:55:20;;;;;;;;;;;;;;;17.89;66.56;99984.53;4936369;29;2104;-91
2023/08/25 05:58:13;;;;;;;;;;;;;;;17.83;66.92;99984.84;4937645;29;1706;-91
2023/08/25 06:01:05;;;;;;;;;;;;;;;17.89;66.67;99995.41;4938037;29;1926;-90
2023/08/25 06:03:57;;;;;;;;;;;;;;;17.85;66.83;100009.88;4937740;29;1983;-91
2023/08/25 06:06:49;;;;;;;;;;;;;;;17.83;66.83;100026.50;4935365;29;1676;-90
2023/08/25 06:09:41;;;;;;;;;;;;;;;17.87;66.76;100027.56;4936869;29;1689;-89
2023/08/25 06:12:33;;;;;;;;;;;;;;;17.92;66.26;100037.63;4938280;29;1574;-89
2023/08/25 06:15:26;;;;;;;;;;;;;;;17.90;66.51;100045.25;4939662;29;2065;-89
2023/08/25 06:18:18;;;;;;;;;;;;;;;17.87;66.83;100054.00;4936665;29;1426;-91
2023/08/25 06:21:10;;;;;;;;;;;;;;;17.81;66.74;100047.75;4937224;29;2349;-90
2023/08/25 06:24:02;;;;;;;;;;;;;;;17.83;66.86;100059.19;4935777;29;2542;-91
2023/08/25 06:26:53;;;;;;;;;;;;;;;17.80;66.75;100059.75;4937986;29;2272;-89
2023/08/25 06:29:46;;;;;;;;;;;;;;;17.89;66.65;100060.78;4935482;29;1561;-89
2023/08/25 06:32:37;;;;;;;;;;;;;;;17.86;66.74;100050.47;4934402;29;1569;-90
2023/08/25 06:35:30;;;;;;;;;;;;;;;17.85;66.76;100056.19;4935486;29;2078;-84
2023/08/25 06:38:22;;;;;;;;;;;;;;;17.87;66.39;100057.53;4935939;29;1668;-85
2023/08/25 06:41:14;;;;;;;;;;;;;;;17.87;66.39;100046.63;4934021;29;1919;-83
2023/08/25 06:44:06;;;;;;;;;;;;;;;17.80;66.67;100046.13;4931581;29;1944;-84
2023/08/25 06:46:58;;;;;;;;;;;;;;;17.87;66.38;100043.09;4934143;29;2193;-84
2023/08/25 06:49:50;;;;;;;;;;;;;;;17.05;70.11;100046.06;4932226;29;5628;-87
2023/08/25 06:52:41;;;;;;;;;;;;;;;17.18;69.53;100045.50;4932139;29;3783;-85
2023/08/25 06:55:33;;;;;;;;;;;;;;;17.53;67.87;100051.94;4937523;29;3805;-84
2023/08/25 06:58:25;;;;;;;;;;;;;;;17.73;66.94;100044.78;4935004;29;2022;-84
2023/08/25 07:01:18;;;;;;;;;;;;;;;17.71;67.17;100042.34;4935347;29;2213;-84
2023/08/25 07:04:10;;;;;;;;;;;;;;;17.48;68.03;100043.78;4937238;29;2098;-81
2023/08/25 07:07:02;;;;;;;;;;;;;;;17.60;67.31;100036.13;4935839;29;3686;-82
2023/08/25 07:09:54;;;;;;;;;;;;;;;17.64;67.01;100031.72;4938663;29;1407;-81
2023/08/25 07:12:46;;;;;;;;;;;;;;;17.72;66.59;100030.34;4938549;29;1932;-81
2023/08/25 07:15:37;;;;;;;;;;;;;;;17.79;66.40;100032.78;4931590;29;2189;-81
2023/08/25 07:18:29;;;;;;;;;;;;;;;17.71;66.72;100034.16;4931780;29;2301;-81
2023/08/25 07:21:21;;;;;;;;;;;;;;;17.66;66.91;100040.44;4934831;29;2100;-81
2023/08/25 07:24:13;;;;;;;;;;;;;;;17.64;66.92;100034.44;4936189;29;1374;-81
2023/08/25 07:27:05;;;;;;;;;;;;;;;17.66;66.69;100031.47;4933879;29;1295;-81
2023/08/25 07:29:57;;;;;;;;;;;;;;;17.66;66.87;100036.91;4937966;29;1014;-82
2023/08/25 07:32:49;;;;;;;;;;;;;;;17.70;66.57;100043.41;4938093;29;982;-81
2023/08/25 07:35:41;;;;;;;;;;;;;;;17.73;66.37;100044.78;4935789;29;1272;-82
2023/08/25 07:38:32;;;;;;;;;;;;;;;17.76;66.47;100041.47;4934399;29;1552;-81
2023/08/25 07:41:25;;;;;;;;;;;;;;;17.65;66.80;100035.28;4939108;29;2408;-81
2023/08/25 07:44:17;;;;;;;;;;;;;;;17.77;66.23;100035.78;4936163;29;2448;-81
2023/08/25 07:47:08;;;;;;;;;;;;;;;17.58;66.76;100038.28;4939642;29;1180;-82
2023/08/25 07:50:02;;;;;;;;;;;;;;;17.64;66.74;100039.09;4930941;29;2104;-83
2023/08/25 07:52:54;;;;;;;;;;;;;;;17.62;66.81;100033.94;4937352;29;1397;-80
2023/08/25 07:55:46;;;;;;;;;;;;;;;17.70;66.23;100030.59;4935163;29;1649;-81
2023/08/25 07:58:38;;;;;;;;;;;;;;;17.64;66.70;100022.75;4936072;29;1400;-79
2023/08/25 08:01:30;;;;;;;;;;;;;;;17.72;66.47;100024.91;4936737;29;1911;-81
2023/08/25 08:04:22;;;;;;;;;;;;;;;17.78;66.07;100012.91;4933470;29;1564;-81
2023/08/25 08:07:14;;;;;;;;;;;;;;;17.68;66.46;100011.03;4933580;29;1524;-81
2023/08/25 08:10:06;;;;;;;;;;;;;;;17.74;66.13;100009.09;4933145;29;2049;-80
2023/08/25 08:12:57;;;;;;;;;;;;;;;17.74;66.08;100016.47;4936213;29;1416;-79
2023/08/25 08:15:49;;;;;;;;;;;;;;;17.64;66.32;100009.13;4916168;29;1517;-78
2023/08/25 08:18:41;;;;;;;;;;;;;;;17.65;66.56;100013.50;4935279;29;1544;-79
2023/08/25 08:21:32;;;;;;;;;;;;;;;17.71;66.36;100015.09;4934603;29;1987;-77
2023/08/25 08:24:27;;;;;;;;;;;;;;;17.56;66.80;100009.72;4931087;29;1588;-80
2023/08/25 08:27:19;;;;;;;;;;;;;;;17.69;66.12;100007.19;4930201;29;1519;-79
2023/08/25 08:30:11;;;;;;;;;;;;;;;17.71;66.09;99998.78;4932288;29;1924;-78
2023/08/25 08:33:04;;;;;;;;;;;;;;;17.58;66.70;100012.97;4930646;29;2220;-79
2023/08/25 08:35:55;;;;;;;;;;;;;;;17.58;66.62;100004.81;4933378;29;1548;-78
2023/08/25 08:38:47;;;;;;;;;;;;;;;17.59;66.66;100009.16;4935069;29;1967;-80
2023/08/25 08:41:38;;;;;;;;;;;;;;;17.56;66.82;99999.66;4933031;29;1906;-78
2023/08/25 08:44:31;;;;;;;;;;;;;;;17.55;66.80;100002.66;4931064;29;2471;-79
2023/08/25 08:47:23;;;;;;;;;;;;;;;17.53;66.61;99999.38;4933759;29;1561;-79
2023/08/25 08:50:14;;;;;;;;;;;;;;;17.45;66.92;99992.63;4937373;29;1972;-80
2023/08/25 08:53:06;;;;;;;;;;;;;;;17.45;67.22;99998.06;4936809;29;1535;-79
2023/08/25 08:55:59;;;;;;;;;;;;;;;17.22;67.91;99992.16;4929712;29;1528;-80
2023/08/25 08:58:51;;;;;;;;;;;;;;;17.05;68.40;99988.94;4934585;29;1847;-80
2023/08/25 09:01:42;;;;;;;;;;;;;;;17.07;68.35;99992.22;4935566;29;1907;-79
2023/08/25 09:04:35;;;;;;;;;;;;;;;17.02;68.42;99987.59;4929385;29;1966;-79
2023/08/25 09:07:27;;;;;;;;;;;;;;;17.10;68.30;99993.56;4933988;29;1992;-79
2023/08/25 09:10:18;;;;;;;;;;;;;;;17.11;68.29;99990.56;4932516;29;2168;-79
2023/08/25 09:13:10;;;;;;;;;;;;;;;17.03;68.37;99996.59;4933405;29;1520;-79
2023/08/25 09:16:02;;;;;;;;;;;;;;;17.09;68.33;99992.75;4930385;29;1721;-80
2023/08/25 09:18:53;;;;;;;;;;;;;;;17.12;68.36;99991.34;4933097;29;2006;-79
2023/08/25 09:21:45;;;;;;;;;;;;;;;17.00;68.59;99995.22;4933406;29;1907;-80
2023/08/25 09:24:37;;;;;;;;;;;;;;;17.05;68.59;99994.38;4929126;29;1466;-79
2023/08/25 09:27:29;;;;;;;;;;;;;;;16.98;68.66;99999.31;4933879;29;1987;-80
2023/08/25 09:30:21;;;;;;;;;;;;;;;17.02;68.46;99998.47;4935090;29;1587;-80
2023/08/25 09:33:13;;;;;;;;;;;;;;;17.02;68.72;99998.47;4935769;29;1152;-80
2023/08/25 09:36:05;;;;;;;;;;;;;;;16.90;69.07;99991.69;4938414;29;1940;-80
2023/08/25 09:38:56;;;;;;;;;;;;;;;16.87;69.20;99995.78;4933311;29;1760;-79
2023/08/25 09:41:48;;;;;;;;;;;;;;;16.83;69.24;100002.88;4936324;29;2224;-78
2023/08/25 09:44:39;;;;;;;;;;;;;;;16.84;69.42;100003.69;4935051;29;2256;-78
2023/08/25 09:47:31;;;;;;;;;;;;;;;16.84;69.26;99999.06;4940379;29;2070;-78
2023/08/25 09:50:23;;;;;;;;;;;;;;;16.84;69.53;99995.53;4936729;29;1916;-79
2023/08/25 09:53:14;;;;;;;;;;;;;;;16.82;69.37;99990.34;4935011;29;1381;-78
2023/08/25 09:56:07;;;;;;;;;;;;;;;16.84;69.39;99992.81;4932614;29;2075;-79
2023/08/25 09:58:59;;;;;;;;;;;;;;;16.82;69.39;100001.22;4933729;29;1361;-80
2023/08/25 10:01:51;;;;;;;;;;;;;;;16.79;69.45;100002.63;4935097;29;2184;-79
2023/08/25 10:04:44;;;;;;;;;;;;;;;16.81;69.46;100002.31;4928764;29;1576;-79
2023/08/25 10:07:36;;;;;;;;;;;;;;;16.81;69.44;100002.31;4930807;29;2024;-78
2023/08/25 10:10:28;;;;;;;;;;;;;;;16.80;69.40;100009.66;4936526;29;1836;-78
2023/08/25 10:13:19;;;;;;;;;;;;;;;16.80;69.55;99997.97;4932779;29;1519;-77
2023/08/25 10:16:12;;;;;;;;;;;;;;;16.80;69.49;100001.50;4936494;29;2090;-78
2023/08/25 10:19:04;;;;;;;;;;;;;;;16.80;69.61;100001.50;4930091;29;2120;-78
2023/08/25 10:24:45;;;;;;;;;;;;;;;16.80;69.62;100000.69;4956366;29;1576;-79
2023/08/25 10:27:38;;;;;;;;;;;;;;;16.80;69.61;99998.78;4966325;29;1670;-79
2023/08/25 10:30:30;;;;;;;;;;;;;;;16.80;69.70;100003.41;4960951;29;1669;-79
2023/08/25 10:33:22;;;;;;;;;;;;;;;16.81;69.58;100005.03;4965613;29;785;-78
2023/08/25 10:36:14;;;;;;;;;;;;;;;16.81;69.45;99999.59;4965444;29;1642;-78
2023/08/25 10:39:06;;;;;;;;;;;;;;;16.80;69.41;100003.41;4967719;29;1291;-80
2023/08/25 10:41:58;;;;;;;;;;;;;;;16.80;69.66;100000.69;4944473;29;5710;-79
2023/08/25 10:44:50;;;;;;;;;;;;;;;16.80;69.51;100000.69;4939680;29;5403;-78
2023/08/25 10:47:44;;;;;;;;;;;;;;;16.81;69.55;99999.59;4937590;29;5310;-77
2023/08/25 10:50:36;;;;;;;;;;;;;;;16.80;69.56;99987.09;4935274;29;1569;-78
2023/08/25 10:53:28;;;;;;;;;;;;;;;16.78;69.59;99990.09;4937975;29;1556;-79
2023/08/25 10:56:21;;;;;;;;;;;;;;;16.78;69.60;99992.00;4937201;29;1995;-79
2023/08/25 10:59:13;;;;;;;;;;;;;;;16.79;69.57;99985.44;4938605;29;1025;-79
2023/08/25 11:02:04;;;;;;;;;;;;;;;16.82;69.51;99989.53;4937812;29;1903;-78
2023/08/25 11:04:56;;;;;;;;;;;;;;;16.81;69.52;99994.16;4934681;29;2188;-79
2023/08/25 11:07:48;;;;;;;;;;;;;;;16.78;69.57;99995.53;4942698;29;1911;-78
2023/08/25 11:10:41;;;;;;;;;;;;;;;16.79;69.50;99978.13;4938368;29;1366;-78
2023/08/25 11:13:32;;;;;;;;;;;;;;;16.80;69.47;99981.66;4938439;29;1269;-79
2023/08/25 11:16:24;;;;;;;;;;;;;;;16.78;69.61;99978.41;4936895;29;1893;-78
2023/08/25 11:19:16;;;;;;;;;;;;;;;16.80;69.73;99984.38;4937819;29;1987;-78
2023/08/25 11:22:08;;;;;;;;;;;;;;;16.79;69.54;99974.56;4934987;29;3709;-78
2023/08/25 11:25:00;;;;;;;;;;;;;;;16.79;69.60;99983.56;4955673;29;2009;-79
2023/08/25 11:27:52;;;;;;;;;;;;;;;16.79;69.64;99988.19;4957339;28;1541;-79
2023/08/25 11:30:44;;;;;;;;;;;;;;;16.80;69.56;99992.53;4955175;29;1941;-80
2023/08/25 11:33:36;;;;;;;;;;;;;;;16.80;69.58;99987.09;4958086;28;1609;-78
2023/08/25 11:36:28;;;;;;;;;;;;;;;16.79;69.56;99997.16;4954688;28;1530;-78
2023/08/25 11:39:19;;;;;;;;;;;;;;;16.78;69.67;99983.84;4954301;29;1543;-78
2023/08/25 11:42:11;;;;;;;;;;;;;;;16.77;69.63;99988.47;4954550;28;1903;-79
2023/08/25 11:45:03;;;;;;;;;;;;;;;16.76;69.71;99975.94;4949935;28;2054;-77
2023/08/25 11:47:55;;;;;;;;;;;;;;;16.79;69.57;99980.00;4956828;29;992;-80
2023/08/25 11:50:47;;;;;;;;;;;;;;;16.78;69.60;99981.94;4955572;29;946;-77
2023/08/25 11:53:39;;;;;;;;;;;;;;;16.78;69.72;99984.66;4956048;28;1411;-77
2023/08/25 11:56:31;;;;;;;;;;;;;;;16.78;69.57;99979.22;4952926;28;1468;-77
2023/08/25 11:59:29;;;;;;;;;;;;;;;16.78;69.58;99976.50;4954478;28;1703;-77
2023/08/25 12:02:21;;;;;;;;;;;;;;;16.78;69.80;99979.22;4951917;28;1910;-77
2023/08/25 12:05:13;;;;;;;;;;;;;;;16.79;69.56;99983.56;4954077;28;1879;-77
2023/08/25 12:08:05;;;;;;;;;;;;;;;16.78;69.65;99979.22;4951185;29;1567;-78
2023/08/25 12:10:57;;;;;;;;;;;;;;;16.78;69.59;99967.53;4948638;28;5178;-78
2023/08/25 12:13:49;;;;;;;;;;;;;;;16.79;69.60;99964.53;4961323;28;1861;-78
2023/08/25 12:16:40;;;;;;;;;;;;;;;16.79;69.60;99982.75;4953066;28;5126;-77
2023/08/25 12:19:32;;;;;;;;;;;;;;;16.78;69.57;99979.22;4956229;29;1610;-77
2023/08/25 12:22:24;;;;;;;;;;;;;;;16.78;69.71;99978.41;4946045;28;1903;-77
2023/08/25 12:25:16;;;;;;;;;;;;;;;16.77;69.59;99983.03;4956548;28;2028;-78
2023/08/25 12:28:07;;;;;;;;;;;;;;;16.79;69.61;99977.28;4954642;28;5072;-79
2023/08/25 12:31:00;;;;;;;;;;;;;;;16.78;69.63;99978.41;4950762;28;1669;-77
2023/08/25 12:33:52;;;;;;;;;;;;;;;16.77;69.53;99972.16;4948586;28;5116;-78
2023/08/25 12:36:44;;;;;;;;;;;;;;;16.77;69.65;99976.78;4951526;28;5179;-79
2023/08/25 12:39:36;;;;;;;;;;;;;;;16.77;69.57;99974.06;4954717;28;5165;-81
2023/08/25 12:42:28;;;;;;;;;;;;;;;16.77;69.76;99969.44;4954305;28;2077;-79
2023/08/25 12:45:19;;;;;;;;;;;;;;;16.78;69.66;99968.31;4950260;28;1297;-79
2023/08/25 12:48:11;;;;;;;;;;;;;;;16.79;69.81;99969.13;4948414;28;1408;-79
2023/08/25 12:51:03;;;;;;;;;;;;;;;16.77;69.61;99964.00;4951080;29;990;-79
2023/08/25 12:53:55;;;;;;;;;;;;;;;16.77;69.46;99964.00;4955604;28;2057;-79
2023/08/25 12:56:47;;;;;;;;;;;;;;;16.78;69.69;99970.25;4953422;28;1494;-80
2023/08/25 12:59:41;;;;;;;;;;;;;;;16.77;69.68;99961.28;4955158;28;1380;-80
2023/08/25 13:02:33;;;;;;;;;;;;;;;16.77;69.62;99964.00;4947797;28;1954;-79
2023/08/25 13:05:25;;;;;;;;;;;;;;;16.77;69.73;99961.28;4959879;28;1206;-78
2023/08/25 13:08:17;;;;;;;;;;;;;;;16.77;69.64;99955.03;4952207;28;1392;-80
2023/08/25 13:11:09;;;;;;;;;;;;;;;16.76;69.74;99956.91;4955334;29;1171;-77
2023/08/25 13:14:01;;;;;;;;;;;;;;;16.78;69.60;99959.38;4953394;29;1961;-80
2023/08/25 13:16:52;;;;;;;;;;;;;;;16.76;69.60;99959.63;4954502;29;1112;-79
2023/08/25 13:19:44;;;;;;;;;;;;;;;16.77;69.64;99961.28;4954313;29;1250;-78
2023/08/25 13:22:36;;;;;;;;;;;;;;;16.78;69.56;99962.09;4948404;28;1914;-79
2023/08/25 13:25:28;;;;;;;;;;;;;;;16.78;69.58;99959.38;4955523;28;1196;-80
2023/08/25 13:28:20;;;;;;;;;;;;;;;16.77;69.51;99957.75;4952964;28;1898;-80
2023/08/25 13:31:12;;;;;;;;;;;;;;;16.77;69.67;99955.84;4952698;29;1196;-78
2023/08/25 13:34:04;;;;;;;;;;;;;;;16.77;69.63;99958.56;4953386;28;2052;-80
2023/08/25 13:36:56;;;;;;;;;;;;;;;16.77;69.54;99950.41;4958564;28;1352;-78
2023/08/25 13:39:48;;;;;;;;;;;;;;;16.77;69.62;99952.31;4953066;28;1360;-77
2023/08/25 13:42:40;;;;;;;;;;;;;;;16.77;69.53;99952.31;4953724;28;2407;-80
2023/08/25 13:45:32;;;;;;;;;;;;;;;16.77;69.54;99953.13;4954914;29;966;-80
2023/08/25 13:48:24;;;;;;;;;;;;;;;16.76;69.61;99946.03;4954671;28;1503;-78
2023/08/25 13:51:16;;;;;;;;;;;;;;;16.76;69.61;99948.75;4942959;28;5134;-80
2023/08/25 13:54:08;;;;;;;;;;;;;;;16.76;69.63;99946.03;4950221;28;4911;-79
2023/08/25 13:56:59;;;;;;;;;;;;;;;16.77;69.69;99938.72;4946083;28;4742;-78
2023/08/25 13:59:51;;;;;;;;;;;;;;;16.77;69.56;99936.81;4953900;28;1401;-78
2023/08/25 14:02:43;;;;;;;;;;;;;;;16.76;69.62;99935.16;4951906;28;2269;-79
2023/08/25 14:05:35;;;;;;;;;;;;;;;16.78;69.53;99943.03;4954745;28;2041;-78
2023/08/25 14:08:26;;;;;;;;;;;;;;;16.77;69.54;99938.72;4960657;28;4913;-78
2023/08/25 14:11:18;;;;;;;;;;;;;;;16.77;69.62;99944.16;4955189;28;1703;-78
2023/08/25 14:14:10;;;;;;;;;;;;;;;16.78;69.67;99940.31;4956728;28;2801;-77
2023/08/25 14:17:04;;;;;;;;;;;;;;;16.77;69.62;99946.88;4956950;28;1605;-79
2023/08/25 14:19:56;;;;;;;;;;;;;;;16.77;69.60;99941.44;4954946;28;2126;-78
2023/08/25 14:22:48;;;;;;;;;;;;;;;16.76;69.74;99945.22;4956085;28;1952;-78
2023/08/25 14:25:40;;;;;;;;;;;;;;;16.77;69.64;99949.59;4956493;28;1576;-80
2023/08/25 14:28:32;;;;;;;;;;;;;;;16.77;69.60;99950.41;4955257;28;1713;-78
2023/08/25 14:31:24;;;;;;;;;;;;;;;16.77;69.60;99946.88;4955752;28;1494;-78
2023/08/25 14:34:16;;;;;;;;;;;;;;;16.76;69.51;99939.78;4955355;28;1451;-78
2023/08/25 14:37:08;;;;;;;;;;;;;;;16.76;69.62;99942.50;4956008;28;2007;-80
2023/08/25 14:40:00;;;;;;;;;;;;;;;16.76;69.65;99948.75;4953629;29;2481;-80
2023/08/25 14:42:52;;;;;;;;;;;;;;;16.75;69.80;99949.81;4948131;28;5682;-78
2023/08/25 14:45:43;;;;;;;;;;;;;;;16.76;69.69;99945.22;4956621;28;5137;-78
2023/08/25 14:48:35;;;;;;;;;;;;;;;16.76;69.79;99953.38;4956802;28;4854;-79
2023/08/25 14:51:26;;;;;;;;;;;;;;;16.78;69.73;99953.91;4956961;28;1538;-79
2023/08/25 14:54:18;;;;;;;;;;;;;;;16.76;69.56;99964.25;4956810;29;1298;-78
2023/08/25 14:57:10;;;;;;;;;;;;;;;16.77;69.72;99957.75;4953615;28;5391;-80
2023/08/25 15:00:03;;;;;;;;;;;;;;;16.74;69.66;99959.06;4960651;28;1482;-79
2023/08/25 15:02:56;;;;;;;;;;;;;;;16.76;69.64;99953.38;4955990;28;1911;-78